sensor_id;sensor_type;location;lat;lon;timestamp;pressure;altitude;pressure_sealevel;temperature;humidity
21956;BME280;11142;49.930;8.606;2022-07-30T00:00:34;100119.50;;;17.70;100.00
21956;BME280;11142;49.930;8.606;2022-07-30T00:03:02;100121.16;;;17.71;100.00
21956;BME280;11142;49.930;8.606;2022-07-30T00:05:30;100124.41;;;17.92;100.00
21956;BME280;11142;49.930;8.606;2022-07-30T00:07:58;100123.28;;;17.95;100.00
21956;BME280;11142;49.930;8.606;2022-07-30T00:10:26;100118.75;;;18.24;100.00
21956;BME280;11142;49.930;8.606;2022-07-30T00:12:54;100117.25;;;18.49;100.00
21956;BME280;11142;49.930;8.606;2022-07-30T00:15:25;100122.41;;;18.50;100.00
21956;BME280;11142;49.930;8.606;2022-07-30T00:17:55;100116.31;;;18.40;100.00
21956;BME280;11142;49.930;8.606;2022-07-30T00:20:23;100117.91;;;18.24;100.00
21956;BME280;11142;49.930;8.606;2022-07-30T00:22:53;100118.91;;;18.23;100.00
21956;BME280;11142;49.930;8.606;2022-07-30T00:25:22;100112.28;;;18.19;100.00
21956;BME280;11142;49.930;8.606;2022-07-30T00:27:50;100113.78;;;18.21;100.00
21956;BME280;11142;49.930;8.606;2022-07-30T00:30:17;100115.59;;;18.21;100.00
21956;BME280;11142;49.930;8.606;2022-07-30T00:32:46;100116.28;;;18.23;100.00
21956;BME280;11142;49.930;8.606;2022-07-30T00:35:15;100120.84;;;18.21;100.00
21956;BME280;11142;49.930;8.606;2022-07-30T00:37:43;100111.88;;;18.23;100.00
21956;BME280;11142;49.930;8.606;2022-07-30T00:40:12;100116.97;;;18.25;100.00
21956;BME280;11142;49.930;8.606;2022-07-30T00:42:43;100111.13;;;18.31;100.00
21956;BME280;11142;49.930;8.606;2022-07-30T00:45:13;100099.88;;;18.38;100.00
21956;BME280;11142;49.930;8.606;2022-07-30T00:47:42;100101.75;;;18.46;100.00
21956;BME280;11142;49.930;8.606;2022-07-30T00:50:11;100100.72;;;18.39;100.00
21956;BME280;11142;49.930;8.606;2022-07-30T00:52:42;100090.09;;;18.31;100.00
21956;BME280;11142;49.930;8.606;2022-07-30T00:55:13;100094.22;;;18.33;100.00
21956;BME280;11142;49.930;8.606;2022-07-30T00:57:42;100096.13;;;18.41;100.00
21956;BME280;11142;49.930;8.606;2022-07-30T01:00:13;100084.13;;;18.38;100.00
21956;BME280;11142;49.930;8.606;2022-07-30T01:02:43;100091.91;;;18.30;100.00
21956;BME280;11142;49.930;8.606;2022-07-30T01:05:12;100073.97;;;18.26;100.00
21956;BME280;11142;49.930;8.606;2022-07-30T01:07:42;100076.44;;;18.27;100.00
21956;BME280;11142;49.930;8.606;2022-07-30T01:10:13;100078.22;;;18.27;100.00
21956;BME280;11142;49.930;8.606;2022-07-30T01:12:43;100075.81;;;18.16;100.00
21956;BME280;11142;49.930;8.606;2022-07-30T01:15:11;100081.72;;;18.18;100.00
21956;BME280;11142;49.930;8.606;2022-07-30T01:17:43;100077.97;;;18.20;100.00
21956;BME280;11142;49.930;8.606;2022-07-30T01:20:23;100082.25;;;18.21;100.00
21956;BME280;11142;49.930;8.606;2022-07-30T01:23:00;100078.81;;;18.21;100.00
21956;BME280;11142;49.930;8.606;2022-07-30T01:25:57;100072.38;;;18.05;100.00
21956;BME280;11142;49.930;8.606;2022-07-30T01:28:29;100072.72;;;17.93;100.00
21956;BME280;11142;49.930;8.606;2022-07-30T01:31:00;100073.31;;;17.87;100.00
21956;BME280;11142;49.930;8.606;2022-07-30T01:33:30;100078.94;;;17.92;100.00
21956;BME280;11142;49.930;8.606;2022-07-30T01:36:00;100082.38;;;17.92;100.00
21956;BME280;11142;49.930;8.606;2022-07-30T01:38:30;100088.19;;;17.96;100.00
21956;BME280;11142;49.930;8.606;2022-07-30T01:41:03;100094.22;;;17.69;100.00
21956;BME280;11142;49.930;8.606;2022-07-30T01:43:35;100097.56;;;17.42;100.00
21956;BME280;11142;49.930;8.606;2022-07-30T01:46:04;100097.81;;;17.49;100.00
21956;BME280;11142;49.930;8.606;2022-07-30T01:48:37;100097.66;;;17.70;100.00
21956;BME280;11142;49.930;8.606;2022-07-30T01:51:10;100101.25;;;17.78;100.00
21956;BME280;11142;49.930;8.606;2022-07-30T01:53:44;100101.22;;;17.88;100.00
21956;BME280;11142;49.930;8.606;2022-07-30T01:56:18;100098.56;;;17.97;100.00
21956;BME280;11142;49.930;8.606;2022-07-30T01:58:54;100113.06;;;17.92;100.00
21956;BME280;11142;49.930;8.606;2022-07-30T02:01:25;100121.56;;;17.67;100.00
21956;BME280;11142;49.930;8.606;2022-07-30T02:04:00;100113.56;;;17.49;100.00
21956;BME280;11142;49.930;8.606;2022-07-30T02:06:31;100117.44;;;17.45;100.00
21956;BME280;11142;49.930;8.606;2022-07-30T02:09:05;100117.44;;;17.45;100.00
21956;BME280;11142;49.930;8.606;2022-07-30T02:11:42;100124.38;;;17.56;100.00
21956;BME280;11142;49.930;8.606;2022-07-30T02:14:36;100130.25;;;17.77;100.00
21956;BME280;11142;49.930;8.606;2022-07-30T02:17:07;100139.63;;;17.89;100.00
21956;BME280;11142;49.930;8.606;2022-07-30T02:19:48;100142.06;;;18.10;100.00
21956;BME280;11142;49.930;8.606;2022-07-30T02:22:19;100139.81;;;18.15;100.00
21956;BME280;11142;49.930;8.606;2022-07-30T02:24:49;100130.69;;;18.19;100.00
21956;BME280;11142;49.930;8.606;2022-07-30T02:27:23;100131.94;;;18.15;100.00
21956;BME280;11142;49.930;8.606;2022-07-30T02:29:54;100142.34;;;18.07;100.00
21956;BME280;11142;49.930;8.606;2022-07-30T02:32:29;100131.28;;;18.03;100.00
21956;BME280;11142;49.930;8.606;2022-07-30T02:35:04;100132.25;;;18.02;100.00
21956;BME280;11142;49.930;8.606;2022-07-30T02:37:38;100133.94;;;17.93;100.00
21956;BME280;11142;49.930;8.606;2022-07-30T02:40:13;100130.50;;;17.93;100.00
21956;BME280;11142;49.930;8.606;2022-07-30T02:42:45;100130.66;;;17.91;100.00
21956;BME280;11142;49.930;8.606;2022-07-30T02:45:18;100140.44;;;17.89;100.00
21956;BME280;11142;49.930;8.606;2022-07-30T02:47:50;100137.72;;;17.81;100.00
21956;BME280;11142;49.930;8.606;2022-07-30T02:50:21;100134.28;;;17.71;100.00
21956;BME280;11142;49.930;8.606;2022-07-30T02:52:53;100145.91;;;17.59;100.00
21956;BME280;11142;49.930;8.606;2022-07-30T02:55:23;100144.66;;;17.44;100.00
21956;BME280;11142;49.930;8.606;2022-07-30T02:57:55;100149.19;;;17.42;100.00
21956;BME280;11142;49.930;8.606;2022-07-30T03:00:24;100150.72;;;17.44;100.00
21956;BME280;11142;49.930;8.606;2022-07-30T03:02:55;100157.06;;;17.42;100.00
21956;BME280;11142;49.930;8.606;2022-07-30T03:05:24;100155.41;;;17.41;100.00
21956;BME280;11142;49.930;8.606;2022-07-30T03:07:55;100151.28;;;17.29;100.00
21956;BME280;11142;49.930;8.606;2022-07-30T03:10:26;100149.91;;;17.34;100.00
21956;BME280;11142;49.930;8.606;2022-07-30T03:12:57;100151.25;;;17.38;100.00
21956;BME280;11142;49.930;8.606;2022-07-30T03:15:27;100155.44;;;17.31;100.00
21956;BME280;11142;49.930;8.606;2022-07-30T03:17:57;100154.59;;;17.31;100.00
21956;BME280;11142;49.930;8.606;2022-07-30T03:20:29;100161.47;;;17.32;100.00
21956;BME280;11142;49.930;8.606;2022-07-30T03:23:00;100159.69;;;17.32;100.00
21956;BME280;11142;49.930;8.606;2022-07-30T03:25:29;100160.81;;;17.39;100.00
21956;BME280;11142;49.930;8.606;2022-07-30T03:28:01;100163.69;;;17.46;100.00
21956;BME280;11142;49.930;8.606;2022-07-30T03:30:30;100167.56;;;17.42;100.00
21956;BME280;11142;49.930;8.606;2022-07-30T03:33:01;100170.91;;;17.34;100.00
21956;BME280;11142;49.930;8.606;2022-07-30T03:35:30;100166.19;;;17.28;100.00
21956;BME280;11142;49.930;8.606;2022-07-30T03:37:59;100171.69;;;17.25;100.00
21956;BME280;11142;49.930;8.606;2022-07-30T03:40:28;100163.69;;;17.17;100.00
21956;BME280;11142;49.930;8.606;2022-07-30T03:42:57;100166.59;;;17.05;100.00
21956;BME280;11142;49.930;8.606;2022-07-30T03:45:28;100163.41;;;16.91;100.00
21956;BME280;11142;49.930;8.606;2022-07-30T03:48:09;100166.69;;;16.74;100.00
21956;BME280;11142;49.930;8.606;2022-07-30T03:50:43;100171.63;;;16.68;100.00
21956;BME280;11142;49.930;8.606;2022-07-30T03:53:13;100167.31;;;16.57;100.00
21956;BME280;11142;49.930;8.606;2022-07-30T03:56:01;100170.72;;;16.48;100.00
21956;BME280;11142;49.930;8.606;2022-07-30T03:58:47;100164.94;;;16.54;100.00
21956;BME280;11142;49.930;8.606;2022-07-30T04:01:17;100166.22;;;16.60;100.00
21956;BME280;11142;49.930;8.606;2022-07-30T04:03:46;100169.66;;;16.60;100.00
21956;BME280;11142;49.930;8.606;2022-07-30T04:06:14;100172.72;;;16.65;100.00
21956;BME280;11142;49.930;8.606;2022-07-30T04:08:43;100170.81;;;16.67;100.00
21956;BME280;11142;49.930;8.606;2022-07-30T04:11:11;100173.00;;;16.72;100.00
21956;BME280;11142;49.930;8.606;2022-07-30T04:13:39;100171.78;;;16.76;100.00
21956;BME280;11142;49.930;8.606;2022-07-30T04:16:11;100178.25;;;16.81;100.00
21956;BME280;11142;49.930;8.606;2022-07-30T04:19:08;100181.47;;;16.94;100.00
21956;BME280;11142;49.930;8.606;2022-07-30T04:21:39;100184.00;;;17.06;100.00
21956;BME280;11142;49.930;8.606;2022-07-30T04:24:10;100182.34;;;17.14;100.00
21956;BME280;11142;49.930;8.606;2022-07-30T04:26:40;100186.63;;;17.25;100.00
21956;BME280;11142;49.930;8.606;2022-07-30T04:29:09;100196.31;;;17.34;100.00
21956;BME280;11142;49.930;8.606;2022-07-30T04:31:40;100199.31;;;17.39;100.00
21956;BME280;11142;49.930;8.606;2022-07-30T04:34:29;100200.16;;;17.49;100.00
21956;BME280;11142;49.930;8.606;2022-07-30T04:36:58;100199.63;;;17.55;100.00
21956;BME280;11142;49.930;8.606;2022-07-30T04:39:28;100208.19;;;17.67;100.00
21956;BME280;11142;49.930;8.606;2022-07-30T04:41:57;100215.63;;;17.90;100.00
21956;BME280;11142;49.930;8.606;2022-07-30T04:44:45;100214.72;;;18.19;100.00
21956;BME280;11142;49.930;8.606;2022-07-30T04:47:24;100211.91;;;18.30;100.00
21956;BME280;11142;49.930;8.606;2022-07-30T04:50:20;100225.44;;;18.54;100.00
21956;BME280;11142;49.930;8.606;2022-07-30T04:52:50;100229.06;;;18.80;100.00
21956;BME280;11142;49.930;8.606;2022-07-30T04:55:25;100234.91;;;19.01;100.00
21956;BME280;11142;49.930;8.606;2022-07-30T04:57:55;100235.91;;;19.18;100.00
21956;BME280;11142;49.930;8.606;2022-07-30T05:00:25;100236.66;;;19.28;100.00
21956;BME280;11142;49.930;8.606;2022-07-30T05:02:59;100240.53;;;19.51;100.00
21956;BME280;11142;49.930;8.606;2022-07-30T05:05:34;100239.31;;;19.81;100.00
21956;BME280;11142;49.930;8.606;2022-07-30T05:08:06;100239.66;;;20.04;100.00
21956;BME280;11142;49.930;8.606;2022-07-30T05:10:36;100234.66;;;20.19;100.00
21956;BME280;11142;49.930;8.606;2022-07-30T05:13:10;100240.38;;;20.32;100.00
21956;BME280;11142;49.930;8.606;2022-07-30T05:15:40;100247.44;;;20.31;95.64
21956;BME280;11142;49.930;8.606;2022-07-30T05:18:12;100244.81;;;20.31;93.69
21956;BME280;11142;49.930;8.606;2022-07-30T05:20:43;100246.28;;;20.59;91.63
21956;BME280;11142;49.930;8.606;2022-07-30T05:23:24;100244.00;;;21.06;90.13
21956;BME280;11142;49.930;8.606;2022-07-30T05:26:18;100245.72;;;21.32;87.14
21956;BME280;11142;49.930;8.606;2022-07-30T05:28:50;100255.34;;;21.57;85.14
21956;BME280;11142;49.930;8.606;2022-07-30T05:31:37;100256.88;;;22.08;83.70
21956;BME280;11142;49.930;8.606;2022-07-30T05:34:06;100257.63;;;22.57;81.01
21956;BME280;11142;49.930;8.606;2022-07-30T05:36:42;100265.06;;;23.08;77.53
21956;BME280;11142;49.930;8.606;2022-07-30T05:39:13;100257.06;;;23.47;75.72
21956;BME280;11142;49.930;8.606;2022-07-30T05:42:02;100261.25;;;23.64;73.79
21956;BME280;11142;49.930;8.606;2022-07-30T05:44:38;100263.91;;;23.87;73.81
21956;BME280;11142;49.930;8.606;2022-07-30T05:47:06;100266.06;;;23.84;71.64
21956;BME280;11142;49.930;8.606;2022-07-30T05:49:36;100261.75;;;23.83;72.35
21956;BME280;11142;49.930;8.606;2022-07-30T05:52:10;100263.81;;;23.95;72.13
21956;BME280;11142;49.930;8.606;2022-07-30T05:54:38;100269.31;;;24.16;70.76
21956;BME280;11142;49.930;8.606;2022-07-30T05:57:25;100273.16;;;24.28;70.13
21956;BME280;11142;49.930;8.606;2022-07-30T05:59:53;100262.94;;;24.40;69.43
21956;BME280;11142;49.930;8.606;2022-07-30T06:02:39;100266.59;;;24.83;65.98
21956;BME280;11142;49.930;8.606;2022-07-30T06:05:27;100267.06;;;25.01;65.42
21956;BME280;11142;49.930;8.606;2022-07-30T06:08:01;100274.66;;;24.75;66.70
21956;BME280;11142;49.930;8.606;2022-07-30T06:10:30;100262.91;;;24.55;66.47
21956;BME280;11142;49.930;8.606;2022-07-30T06:12:58;100271.06;;;24.68;64.26
21956;BME280;11142;49.930;8.606;2022-07-30T06:15:27;100273.91;;;24.00;64.85
21956;BME280;11142;49.930;8.606;2022-07-30T06:17:55;100274.84;;;23.61;69.81
21956;BME280;11142;49.930;8.606;2022-07-30T06:20:48;100274.81;;;24.59;65.84
21956;BME280;11142;49.930;8.606;2022-07-30T06:23:42;100274.22;;;25.36;62.18
21956;BME280;11142;49.930;8.606;2022-07-30T06:26:16;100274.25;;;25.79;60.00
21956;BME280;11142;49.930;8.606;2022-07-30T06:28:44;100274.91;;;25.81;60.22
21956;BME280;11142;49.930;8.606;2022-07-30T06:31:17;100282.06;;;26.29;60.10
21956;BME280;11142;49.930;8.606;2022-07-30T06:33:46;100287.78;;;26.61;58.20
21956;BME280;11142;49.930;8.606;2022-07-30T06:36:14;100280.31;;;26.43;56.08
21956;BME280;11142;49.930;8.606;2022-07-30T06:38:52;100281.47;;;25.64;56.47
21956;BME280;11142;49.930;8.606;2022-07-30T06:41:31;100283.09;;;26.07;56.86
21956;BME280;11142;49.930;8.606;2022-07-30T06:43:59;100292.75;;;26.36;55.54
21956;BME280;11142;49.930;8.606;2022-07-30T06:46:51;100294.56;;;26.91;54.29
21956;BME280;11142;49.930;8.606;2022-07-30T06:49:23;100299.22;;;26.55;55.12
21956;BME280;11142;49.930;8.606;2022-07-30T06:51:52;100298.50;;;27.02;52.90
21956;BME280;11142;49.930;8.606;2022-07-30T06:54:22;100296.44;;;27.51;54.28
21956;BME280;11142;49.930;8.606;2022-07-30T06:57:11;100301.69;;;28.25;50.68
21956;BME280;11142;49.930;8.606;2022-07-30T06:59:41;100308.44;;;28.67;49.88
21956;BME280;11142;49.930;8.606;2022-07-30T07:02:30;100298.63;;;27.41;49.44
21956;BME280;11142;49.930;8.606;2022-07-30T07:05:21;100298.56;;;27.21;54.15
21956;BME280;11142;49.930;8.606;2022-07-30T07:07:49;100305.53;;;27.83;52.90
21956;BME280;11142;49.930;8.606;2022-07-30T07:10:34;100293.72;;;27.38;51.98
21956;BME280;11142;49.930;8.606;2022-07-30T07:13:11;100306.97;;;27.79;49.58
21956;BME280;11142;49.930;8.606;2022-07-30T07:15:40;100309.84;;;28.56;50.94
21956;BME280;11142;49.930;8.606;2022-07-30T07:18:13;100303.00;;;29.44;47.09
21956;BME280;11142;49.930;8.606;2022-07-30T07:21:00;100310.75;;;29.96;45.91
21956;BME280;11142;49.930;8.606;2022-07-30T07:23:29;100309.63;;;29.73;46.72
21956;BME280;11142;49.930;8.606;2022-07-30T07:26:28;100305.88;;;29.80;45.95
21956;BME280;11142;49.930;8.606;2022-07-30T07:28:56;100307.94;;;29.78;46.42
21956;BME280;11142;49.930;8.606;2022-07-30T07:31:31;100309.19;;;30.07;43.67
21956;BME280;11142;49.930;8.606;2022-07-30T07:34:19;100310.25;;;29.37;46.47
21956;BME280;11142;49.930;8.606;2022-07-30T07:36:48;100303.53;;;30.22;44.63
21956;BME280;11142;49.930;8.606;2022-07-30T07:39:16;100311.50;;;30.28;42.37
21956;BME280;11142;49.930;8.606;2022-07-30T07:41:47;100304.28;;;29.73;42.11
21956;BME280;11142;49.930;8.606;2022-07-30T07:44:21;100293.81;;;25.93;50.70
21956;BME280;11142;49.930;8.606;2022-07-30T07:46:50;100292.81;;;23.97;56.72
21956;BME280;11142;49.930;8.606;2022-07-30T07:49:18;100299.72;;;25.16;57.38
21956;BME280;11142;49.930;8.606;2022-07-30T07:51:50;100296.81;;;26.11;54.10
21956;BME280;11142;49.930;8.606;2022-07-30T07:54:19;100295.16;;;26.93;51.56
21956;BME280;11142;49.930;8.606;2022-07-30T07:56:51;100296.69;;;27.15;49.66
21956;BME280;11142;49.930;8.606;2022-07-30T07:59:38;100306.13;;;27.59;49.95
21956;BME280;11142;49.930;8.606;2022-07-30T08:02:14;100302.09;;;27.28;49.22
21956;BME280;11142;49.930;8.606;2022-07-30T08:05:09;100305.31;;;29.34;45.15
21956;BME280;11142;49.930;8.606;2022-07-30T08:07:48;100298.91;;;27.05;46.84
21956;BME280;11142;49.930;8.606;2022-07-30T08:10:35;100298.53;;;24.75;54.04
21956;BME280;11142;49.930;8.606;2022-07-30T08:13:22;100304.66;;;24.46;53.81
21956;BME280;11142;49.930;8.606;2022-07-30T08:16:29;100292.19;;;25.70;52.62
21956;BME280;11142;49.930;8.606;2022-07-30T08:19:16;100301.03;;;25.42;53.08
21956;BME280;11142;49.930;8.606;2022-07-30T08:21:56;100294.28;;;24.89;53.15
21956;BME280;11142;49.930;8.606;2022-07-30T08:24:29;100301.03;;;24.91;54.95
21956;BME280;11142;49.930;8.606;2022-07-30T08:26:57;100301.84;;;25.57;51.16
21956;BME280;11142;49.930;8.606;2022-07-30T08:29:27;100296.81;;;26.94;47.98
21956;BME280;11142;49.930;8.606;2022-07-30T08:31:56;100309.84;;;25.27;53.05
21956;BME280;11142;49.930;8.606;2022-07-30T08:34:26;100307.66;;;25.31;54.16
21956;BME280;11142;49.930;8.606;2022-07-30T08:36:56;100304.97;;;25.46;54.29
21956;BME280;11142;49.930;8.606;2022-07-30T08:39:24;100310.31;;;27.40;49.58
21956;BME280;11142;49.930;8.606;2022-07-30T08:41:53;100310.22;;;29.43;44.18
21956;BME280;11142;49.930;8.606;2022-07-30T08:44:22;100309.88;;;30.88;41.73
21956;BME280;11142;49.930;8.606;2022-07-30T08:46:52;100317.00;;;31.90;38.25
21956;BME280;11142;49.930;8.606;2022-07-30T08:49:40;100306.28;;;30.40;39.79
21956;BME280;11142;49.930;8.606;2022-07-30T08:52:09;100307.47;;;29.57;41.50
21956;BME280;11142;49.930;8.606;2022-07-30T08:54:41;100302.59;;;27.52;45.63
21956;BME280;11142;49.930;8.606;2022-07-30T08:57:11;100299.00;;;26.01;50.04
21956;BME280;11142;49.930;8.606;2022-07-30T08:59:39;100301.84;;;25.57;50.53
21956;BME280;11142;49.930;8.606;2022-07-30T09:02:30;100298.41;;;26.26;49.17
21956;BME280;11142;49.930;8.606;2022-07-30T09:05:05;100308.09;;;27.43;47.18
21956;BME280;11142;49.930;8.606;2022-07-30T09:07:35;100298.63;;;26.87;47.95
21956;BME280;11142;49.930;8.606;2022-07-30T09:10:08;100311.09;;;27.21;46.49
21956;BME280;11142;49.930;8.606;2022-07-30T09:12:40;100304.22;;;26.36;47.31
21956;BME280;11142;49.930;8.606;2022-07-30T09:15:11;100307.66;;;25.88;46.96
21956;BME280;11142;49.930;8.606;2022-07-30T09:17:50;100306.94;;;27.12;46.13
21956;BME280;11142;49.930;8.606;2022-07-30T09:20:22;100313.97;;;28.19;43.49
21956;BME280;11142;49.930;8.606;2022-07-30T09:22:53;100304.22;;;27.53;42.67
21956;BME280;11142;49.930;8.606;2022-07-30T09:25:45;100308.03;;;26.55;44.88
21956;BME280;11142;49.930;8.606;2022-07-30T09:28:33;100307.16;;;26.42;45.23
21956;BME280;11142;49.930;8.606;2022-07-30T09:31:14;100301.59;;;25.52;45.75
21956;BME280;11142;49.930;8.606;2022-07-30T09:34:22;100299.88;;;26.57;45.61
21956;BME280;11142;49.930;8.606;2022-07-30T09:37:04;100313.06;;;27.06;42.91
21956;BME280;11142;49.930;8.606;2022-07-30T09:40:10;100297.91;;;26.16;44.15
21956;BME280;11142;49.930;8.606;2022-07-30T09:43:04;100301.28;;;25.61;45.65
21956;BME280;11142;49.930;8.606;2022-07-30T09:45:34;100303.16;;;26.59;44.31
21956;BME280;11142;49.930;8.606;2022-07-30T09:48:19;100299.19;;;27.17;42.44
21956;BME280;11142;49.930;8.606;2022-07-30T09:50:49;100303.41;;;27.46;41.77
21956;BME280;11142;49.930;8.606;2022-07-30T09:53:18;100296.72;;;28.68;39.40
21956;BME280;11142;49.930;8.606;2022-07-30T09:55:49;100305.94;;;28.78;37.75
21956;BME280;11142;49.930;8.606;2022-07-30T09:58:18;100297.81;;;27.40;38.90
21956;BME280;11142;49.930;8.606;2022-07-30T10:00:56;100303.38;;;26.57;41.22
21956;BME280;11142;49.930;8.606;2022-07-30T10:03:46;100296.22;;;26.92;38.29
21956;BME280;11142;49.930;8.606;2022-07-30T10:06:35;100293.91;;;26.27;40.64
21956;BME280;11142;49.930;8.606;2022-07-30T10:09:24;100296.75;;;28.35;38.46
21956;BME280;11142;49.930;8.606;2022-07-30T10:11:54;100300.94;;;29.84;34.83
21956;BME280;11142;49.930;8.606;2022-07-30T10:14:28;100291.78;;;29.22;34.98
21956;BME280;11142;49.930;8.606;2022-07-30T10:17:00;100290.25;;;29.02;35.14
21956;BME280;11142;49.930;8.606;2022-07-30T10:19:32;100302.63;;;29.72;32.62
21956;BME280;11142;49.930;8.606;2022-07-30T10:22:27;100289.66;;;28.86;31.64
21956;BME280;11142;49.930;8.606;2022-07-30T10:25:17;100291.50;;;32.11;28.91
21956;BME280;11142;49.930;8.606;2022-07-30T10:27:57;100297.63;;;32.00;27.86
21956;BME280;11142;49.930;8.606;2022-07-30T10:30:31;100288.56;;;31.30;29.34
21956;BME280;11142;49.930;8.606;2022-07-30T10:33:00;100290.50;;;30.68;30.72
21956;BME280;11142;49.930;8.606;2022-07-30T10:35:29;100277.56;;;29.35;33.63
21956;BME280;11142;49.930;8.606;2022-07-30T10:38:09;100286.41;;;29.35;33.19
21956;BME280;11142;49.930;8.606;2022-07-30T10:40:48;100287.50;;;32.95;29.15
21956;BME280;11142;49.930;8.606;2022-07-30T10:43:49;100297.25;;;34.14;26.37
21956;BME280;11142;49.930;8.606;2022-07-30T10:46:33;100289.41;;;34.12;25.48
21956;BME280;11142;49.930;8.606;2022-07-30T10:49:12;100289.59;;;34.83;24.10
21956;BME280;11142;49.930;8.606;2022-07-30T10:51:46;100288.44;;;34.57;24.62
21956;BME280;11142;49.930;8.606;2022-07-30T10:54:36;100276.19;;;30.13;29.85
21956;BME280;11142;49.930;8.606;2022-07-30T10:57:08;100274.59;;;31.10;28.39
21956;BME280;11142;49.930;8.606;2022-07-30T11:00:10;100270.59;;;29.21;30.49
21956;BME280;11142;49.930;8.606;2022-07-30T11:03:11;100266.22;;;29.39;30.56
21956;BME280;11142;49.930;8.606;2022-07-30T11:05:42;100261.53;;;29.91;29.78
21956;BME280;11142;49.930;8.606;2022-07-30T11:08:31;100265.06;;;29.91;28.74
21956;BME280;11142;49.930;8.606;2022-07-30T11:11:05;100265.22;;;29.96;29.40
21956;BME280;11142;49.930;8.606;2022-07-30T11:14:14;100266.16;;;30.51;28.96
21956;BME280;11142;49.930;8.606;2022-07-30T11:16:58;100265.47;;;28.62;30.61
21956;BME280;11142;49.930;8.606;2022-07-30T11:19:27;100269.19;;;27.69;31.64
21956;BME280;11142;49.930;8.606;2022-07-30T11:22:26;100254.03;;;27.89;31.02
21956;BME280;11142;49.930;8.606;2022-07-30T11:24:58;100258.72;;;29.10;30.02
21956;BME280;11142;49.930;8.606;2022-07-30T11:27:41;100268.91;;;31.47;27.15
21956;BME280;11142;49.930;8.606;2022-07-30T11:30:30;100260.81;;;29.77;29.05
21956;BME280;11142;49.930;8.606;2022-07-30T11:33:22;100269.75;;;32.01;26.10
21956;BME280;11142;49.930;8.606;2022-07-30T11:36:07;100271.13;;;35.13;22.55
21956;BME280;11142;49.930;8.606;2022-07-30T11:38:50;100280.81;;;35.62;21.30
21956;BME280;11142;49.930;8.606;2022-07-30T11:41:20;100273.22;;;33.79;22.95
21956;BME280;11142;49.930;8.606;2022-07-30T11:46:52;100272.72;;;36.31;21.06
21956;BME280;11142;49.930;8.606;2022-07-30T11:49:20;100254.69;;;33.38;24.56
21956;BME280;11142;49.930;8.606;2022-07-30T11:51:48;100261.94;;;31.99;24.71
21956;BME280;11142;49.930;8.606;2022-07-30T11:54:17;100261.25;;;32.39;24.70
21956;BME280;11142;49.930;8.606;2022-07-30T11:56:53;100267.75;;;37.37;20.79
21956;BME280;11142;49.930;8.606;2022-07-30T11:59:29;100256.91;;;34.02;23.34
21956;BME280;11142;49.930;8.606;2022-07-30T12:01:59;100270.25;;;37.84;20.53
21956;BME280;11142;49.930;8.606;2022-07-30T12:04:28;100269.13;;;34.10;23.22
21956;BME280;11142;49.930;8.606;2022-07-30T12:06:57;100257.41;;;33.09;24.60
21956;BME280;11142;49.930;8.606;2022-07-30T12:09:26;100250.00;;;33.05;24.49
21956;BME280;11142;49.930;8.606;2022-07-30T12:11:55;100258.06;;;32.77;23.31
21956;BME280;11142;49.930;8.606;2022-07-30T12:14:35;100250.72;;;31.49;24.96
21956;BME280;11142;49.930;8.606;2022-07-30T12:17:06;100258.31;;;31.52;25.10
21956;BME280;11142;49.930;8.606;2022-07-30T12:19:44;100246.69;;;31.29;26.04
21956;BME280;11142;49.930;8.606;2022-07-30T12:22:14;100246.03;;;31.98;25.10
21956;BME280;11142;49.930;8.606;2022-07-30T12:24:42;100251.06;;;33.16;24.10
21956;BME280;11142;49.930;8.606;2022-07-30T12:27:10;100253.88;;;35.67;21.39
21956;BME280;11142;49.930;8.606;2022-07-30T12:29:40;100250.41;;;37.33;19.84
21956;BME280;11142;49.930;8.606;2022-07-30T12:32:11;100253.38;;;38.53;19.00
21956;BME280;11142;49.930;8.606;2022-07-30T12:34:52;100243.84;;;34.66;22.09
21956;BME280;11142;49.930;8.606;2022-07-30T12:37:21;100239.28;;;31.42;26.01
21956;BME280;11142;49.930;8.606;2022-07-30T12:40:03;100247.53;;;35.57;21.39
21956;BME280;11142;49.930;8.606;2022-07-30T12:42:32;100245.59;;;32.36;23.97
21956;BME280;11142;49.930;8.606;2022-07-30T12:45:00;100245.22;;;35.17;21.78
21956;BME280;11142;49.930;8.606;2022-07-30T12:47:31;100240.09;;;35.42;21.17
21956;BME280;11142;49.930;8.606;2022-07-30T12:50:01;100247.97;;;39.07;17.87
21956;BME280;11142;49.930;8.606;2022-07-30T12:52:47;100237.16;;;33.07;22.86
21956;BME280;11142;49.930;8.606;2022-07-30T12:55:17;100225.34;;;34.36;21.86
21956;BME280;11142;49.930;8.606;2022-07-30T12:57:56;100233.66;;;36.54;19.38
21956;BME280;11142;49.930;8.606;2022-07-30T13:00:32;100222.00;;;34.67;21.77
21956;BME280;11142;49.930;8.606;2022-07-30T13:03:24;100237.47;;;37.96;18.50
21956;BME280;11142;49.930;8.606;2022-07-30T13:05:55;100229.06;;;37.77;18.44
21956;BME280;11142;49.930;8.606;2022-07-30T13:08:49;100225.94;;;36.88;19.52
21956;BME280;11142;49.930;8.606;2022-07-30T13:11:26;100222.03;;;37.66;18.73
21956;BME280;11142;49.930;8.606;2022-07-30T13:14:03;100225.59;;;35.53;20.81
21956;BME280;11142;49.930;8.606;2022-07-30T13:16:35;100218.16;;;31.04;26.09
21956;BME280;11142;49.930;8.606;2022-07-30T13:19:06;100211.84;;;32.91;24.38
21956;BME280;11142;49.930;8.606;2022-07-30T13:21:34;100212.84;;;33.30;24.34
21956;BME280;11142;49.930;8.606;2022-07-30T13:24:04;100213.81;;;33.86;22.18
21956;BME280;11142;49.930;8.606;2022-07-30T13:26:34;100225.28;;;36.60;20.29
21956;BME280;11142;49.930;8.606;2022-07-30T13:29:03;100209.94;;;33.48;22.59